Time;durP1;ratioP1;P1;durP2;ratioP2;P2;SDS_P1;SDS_P2;PMS_P1;PMS_P2;Temp;Humidity;BMP_temperature;BMP_pressure;BME280_temperature;BME280_humidity;BME280_pressure;Samples;Min_cycle;Max_cycle;Signal;HPM_P1;HPM_P2
2023/07/28 00:01:00;;;;;;;0.00;0.00;;;;;;;17.40;nan;99403.41;6241096;22;20007;-76
2023/07/28 00:03:25;;;;;;;0.00;0.00;;;;;;;17.40;nan;99402.63;6269068;22;20004;-74
2023/07/28 00:05:50;;;;;;;0.00;0.00;;;;;;;17.34;nan;99393.72;6241085;22;20034;-74
2023/07/28 00:08:16;;;;;;;0.00;0.00;;;;;;;17.34;nan;99393.72;6244453;22;20011;-74
2023/07/28 00:10:42;;;;;;;0.00;0.00;;;;;;;17.32;nan;99395.19;6268166;22;20011;-73
2023/07/28 00:13:07;;;;;;;0.00;0.00;;;;;;;17.25;nan;99385.50;6268690;22;20004;-75
2023/07/28 00:15:33;;;;;;;0.00;0.00;;;;;;;17.27;nan;99388.75;6270180;22;20403;-75
2023/07/28 00:17:59;;;;;;;0.00;0.00;;;;;;;17.23;nan;99385.03;6266041;22;20038;-75
2023/07/28 00:20:26;;;;;;;0.00;0.00;;;;;;;17.21;nan;99389.28;6244459;22;20011;-77
2023/07/28 00:22:51;;;;;;;0.00;0.00;;;;;;;17.12;nan;99392.09;6265917;22;20016;-73
2023/07/28 00:25:17;;;;;;;0.00;0.00;;;;;;;17.09;nan;99387.25;6244542;22;20014;-73
2023/07/28 00:27:42;;;;;;;0.00;0.00;;;;;;;17.04;nan;99387.41;6268867;22;20031;-73
2023/07/28 00:30:10;;;;;;;0.00;0.00;;;;;;;16.89;nan;99383.28;6239261;22;20341;-74
2023/07/28 00:32:36;;;;;;;0.00;0.00;;;;;;;16.74;nan;99387.41;6271205;22;20377;-74
2023/07/28 00:35:02;;;;;;;0.00;0.00;;;;;;;16.57;nan;99389.13;6214640;22;20007;-74
2023/07/28 00:37:27;;;;;;;0.00;0.00;;;;;;;16.40;nan;99378.97;6269809;22;20003;-73
2023/07/28 00:39:52;;;;;;;0.00;0.00;;;;;;;16.27;nan;99384.69;6239206;22;20012;-73
2023/07/28 00:42:18;;;;;;;0.00;0.00;;;;;;;16.12;nan;99378.56;6269282;22;20418;-73
2023/07/28 00:44:43;;;;;;;0.00;0.00;;;;;;;16.05;nan;99389.28;6243068;22;20012;-73
2023/07/28 00:47:08;;;;;;;0.00;0.00;;;;;;;15.97;nan;99387.34;6239395;22;20035;-73
2023/07/28 00:49:34;;;;;;;0.00;0.00;;;;;;;15.92;nan;99385.59;6270686;22;20010;-74
2023/07/28 00:52:00;;;;;;;0.00;0.00;;;;;;;15.86;nan;99382.19;6243662;22;20030;-74
2023/07/28 00:54:25;;;;;;;0.00;0.00;;;;;;;15.79;nan;99381.88;6266476;22;20329;-73
2023/07/28 00:56:51;;;;;;;0.00;0.00;;;;;;;15.79;nan;99384.63;6270467;22;20365;-74
2023/07/28 00:59:17;;;;;;;0.00;0.00;;;;;;;15.82;nan;99378.47;6263463;22;20015;-73
2023/07/28 01:01:42;;;;;;;0.00;0.00;;;;;;;15.84;nan;99378.97;6269871;22;20014;-73
2023/07/28 01:04:08;;;;;;;0.00;0.00;;;;;;;15.96;nan;99385.72;6239181;22;20010;-73
2023/07/28 01:06:44;;;;;;;0.00;0.00;;;;;;;16.09;nan;99379.25;6242988;22;20008;-74
2023/07/28 01:09:14;;;;;;;0.00;0.00;;;;;;;16.23;nan;99382.56;6267827;22;20421;-73
2023/07/28 01:11:57;;;;;;;0.00;0.00;;;;;;;16.40;nan;99378.97;6269352;22;20007;-73
2023/07/28 01:14:22;;;;;;;0.00;0.00;;;;;;;16.49;nan;99384.44;6260312;22;20008;-74
2023/07/28 01:16:48;;;;;;;0.00;0.00;;;;;;;16.54;nan;99373.22;6270103;22;20016;-74
2023/07/28 01:19:20;;;;;;;0.00;0.00;;;;;;;16.61;nan;99382.94;6267699;22;20007;-75
2023/07/28 01:21:53;;;;;;;0.00;0.00;;;;;;;16.70;nan;99391.97;6269330;22;20014;-75
2023/07/28 01:24:48;;;;;;;0.00;0.00;;;;;;;16.74;nan;99384.66;6268714;22;20322;-74
2023/07/28 01:27:14;;;;;;;0.00;0.00;;;;;;;16.80;nan;99401.84;6269476;22;20007;-74
2023/07/28 01:29:40;;;;;;;0.00;0.00;;;;;;;16.81;nan;99392.44;6267379;22;20113;-74
2023/07/28 01:32:05;;;;;;;0.00;0.00;;;;;;;16.79;nan;99389.97;6270210;22;20035;-75
2023/07/28 01:34:31;;;;;;;0.00;0.00;;;;;;;16.79;nan;99389.97;6218173;22;20012;-74
2023/07/28 01:36:56;;;;;;;0.00;0.00;;;;;;;16.77;nan;99395.03;6270991;22;20003;-75
2023/07/28 01:39:21;;;;;;;0.00;0.00;;;;;;;16.80;nan;99386.06;6244039;22;20031;-74
2023/07/28 01:41:47;;;;;;;0.00;0.00;;;;;;;16.83;nan;99387.38;6271102;22;19999;-75
2023/07/28 01:44:12;;;;;;;0.00;0.00;;;;;;;16.84;nan;99387.03;6270427;22;20020;-74
2023/07/28 01:46:39;;;;;;;0.00;0.00;;;;;;;16.80;nan;99375.03;6272099;22;20026;-73
2023/07/28 01:49:04;;;;;;;0.00;0.00;;;;;;;16.77;nan;99375.69;6272950;22;20004;-74
2023/07/28 01:51:30;;;;;;;0.00;0.00;;;;;;;16.71;nan;99377.03;6244913;22;20004;-74
2023/07/28 01:53:55;;;;;;;0.00;0.00;;;;;;;16.62;nan;99374.31;6246664;22;20018;-72
2023/07/28 01:56:20;;;;;;;0.00;0.00;;;;;;;16.63;nan;99375.13;6272399;22;20077;-73
2023/07/28 01:58:46;;;;;;;0.00;0.00;;;;;;;16.62;nan;99384.53;6245369;22;20008;-73
2023/07/28 02:01:13;;;;;;;0.00;0.00;;;;;;;16.61;nan;99383.75;6247427;22;20087;-74
2023/07/28 02:03:38;;;;;;;0.00;0.00;;;;;;;16.65;nan;99381.94;6271347;22;20667;-73
2023/07/28 02:06:03;;;;;;;0.00;0.00;;;;;;;16.47;nan;99356.38;6271602;22;20007;-72
2023/07/28 02:08:29;;;;;;;0.00;0.00;;;;;;;16.60;nan;99378.56;6245951;22;20090;-75
2023/07/28 02:10:54;;;;;;;0.00;0.00;;;;;;;16.55;nan;99369.31;6270996;22;20016;-74
2023/07/28 02:13:20;;;;;;;0.00;0.00;;;;;;;16.54;nan;99377.94;6244569;22;20012;-73
2023/07/28 02:15:45;;;;;;;0.00;0.00;;;;;;;16.48;nan;99377.28;6272106;22;20018;-72
2023/07/28 02:18:11;;;;;;;0.00;0.00;;;;;;;16.42;nan;99373.09;6270941;22;20011;-74
2023/07/28 02:20:37;;;;;;;0.00;0.00;;;;;;;16.38;nan;99369.38;6245406;22;20056;-73
2023/07/28 02:23:03;;;;;;;0.00;0.00;;;;;;;16.38;nan;99380.41;6272378;22;20026;-73
2023/07/28 02:25:28;;;;;;;0.00;0.00;;;;;;;16.34;nan;99373.94;6272594;22;20004;-75
2023/07/28 02:27:54;;;;;;;0.00;0.00;;;;;;;16.30;nan;99378.53;6244532;22;20030;-74
2023/07/28 02:30:19;;;;;;;0.00;0.00;;;;;;;16.26;nan;99380.31;6245342;22;20388;-75
2023/07/28 02:32:44;;;;;;;0.00;0.00;;;;;;;16.21;nan;99373.84;6246210;22;20061;-75
2023/07/28 02:35:10;;;;;;;0.00;0.00;;;;;;;16.21;nan;99379.34;6246357;22;20011;-75
2023/07/28 02:37:36;;;;;;;0.00;0.00;;;;;;;16.19;nan;99378.88;6272118;22;20509;-75
2023/07/28 02:40:01;;;;;;;0.00;0.00;;;;;;;16.16;nan;99374.00;6271922;22;20342;-74
2023/07/28 02:42:26;;;;;;;0.00;0.00;;;;;;;16.15;nan;99377.91;6272056;22;20007;-74
2023/07/28 02:44:52;;;;;;;0.00;0.00;;;;;;;16.11;nan;99371.44;6245511;22;20434;-75
2023/07/28 02:47:17;;;;;;;0.00;0.00;;;;;;;16.11;nan;99373.41;6244155;22;20307;-75
2023/07/28 02:49:43;;;;;;;0.00;0.00;;;;;;;16.04;nan;99371.13;6270923;22;20008;-74
2023/07/28 02:52:08;;;;;;;0.00;0.00;;;;;;;16.00;nan;99368.22;6271623;22;20008;-74
2023/07/28 02:54:34;;;;;;;0.00;0.00;;;;;;;15.91;nan;99361.09;6268242;22;20008;-74
2023/07/28 02:56:59;;;;;;;0.00;0.00;;;;;;;15.94;nan;99369.53;6273210;22;20011;-75
2023/07/28 02:59:25;;;;;;;0.00;0.00;;;;;;;15.96;nan;99374.69;6271393;22;20022;-75
2023/07/28 03:01:51;;;;;;;0.00;0.00;;;;;;;15.99;nan;99379.56;6245582;22;20042;-74
2023/07/28 03:04:22;;;;;;;0.00;0.00;;;;;;;15.95;nan;99370.34;6271242;22;20057;-74
2023/07/28 03:06:48;;;;;;;0.00;0.00;;;;;;;15.94;nan;99371.47;6271421;22;20000;-75
2023/07/28 03:09:14;;;;;;;0.00;0.00;;;;;;;15.82;nan;99383.97;6271239;22;20007;-74
2023/07/28 03:11:41;;;;;;;0.00;0.00;;;;;;;15.68;nan;99383.31;6246553;22;20012;-74
2023/07/28 03:14:07;;;;;;;0.00;0.00;;;;;;;15.58;nan;99391.91;6270505;22;20012;-74
2023/07/28 03:16:32;;;;;;;0.00;0.00;;;;;;;15.60;nan;99400.69;6271067;22;20008;-74
2023/07/28 03:18:57;;;;;;;0.00;0.00;;;;;;;15.61;nan;99391.25;6271360;22;20106;-74
2023/07/28 03:21:23;;;;;;;0.00;0.00;;;;;;;15.61;nan;99385.75;6271811;22;20004;-73
2023/07/28 03:23:48;;;;;;;0.00;0.00;;;;;;;15.57;nan;99390.31;6245526;22;20042;-75
2023/07/28 03:26:13;;;;;;;0.00;0.00;;;;;;;15.50;nan;99386.06;6220570;22;20106;-75
2023/07/28 03:28:39;;;;;;;0.00;0.00;;;;;;;15.46;nan;99390.63;6222161;22;20138;-74
2023/07/28 03:31:04;;;;;;;0.00;0.00;;;;;;;15.39;nan;99393.06;6219402;22;20007;-75
2023/07/28 03:33:30;;;;;;;0.00;0.00;;;;;;;15.34;nan;99395.97;6220859;22;20011;-74
2023/07/28 03:35:55;;;;;;;0.00;0.00;;;;;;;15.25;nan;99384.94;6268711;22;20519;-74
2023/07/28 03:38:20;;;;;;;0.00;0.00;;;;;;;15.21;nan;99394.16;6246070;22;20087;-75
2023/07/28 03:40:46;;;;;;;0.00;0.00;;;;;;;15.15;nan;99397.06;6271048;22;20022;-75
2023/07/28 03:43:11;;;;;;;0.00;0.00;;;;;;;15.09;nan;99398.34;6272625;22;20307;-75
2023/07/28 03:45:37;;;;;;;0.00;0.00;;;;;;;15.05;nan;99391.88;6271650;22;20481;-74
2023/07/28 03:48:02;;;;;;;0.00;0.00;;;;;;;15.00;nan;99394.78;6270982;22;20065;-75
2023/07/28 03:50:28;;;;;;;0.00;0.00;;;;;;;14.99;nan;99398.66;6221900;22;20064;-75
2023/07/28 03:52:53;;;;;;;0.00;0.00;;;;;;;15.01;nan;99404.69;6268278;22;20024;-76
2023/07/28 03:55:19;;;;;;;0.00;0.00;;;;;;;15.07;nan;99397.88;6272119;22;20397;-76
2023/07/28 03:57:44;;;;;;;0.00;0.00;;;;;;;15.11;nan;99401.63;6271953;22;20004;-75
2023/07/28 04:00:10;;;;;;;0.00;0.00;;;;;;;15.18;nan;99396.41;6245986;22;20331;-75
2023/07/28 04:02:36;;;;;;;0.00;0.00;;;;;;;15.26;nan;99402.25;6270727;22;20342;-73
2023/07/28 04:05:01;;;;;;;0.00;0.00;;;;;;;15.34;nan;99401.47;6269345;22;20007;-74
2023/07/28 04:07:26;;;;;;;0.00;0.00;;;;;;;15.40;nan;99400.16;6270881;22;20012;-73
2023/07/28 04:09:52;;;;;;;0.00;0.00;;;;;;;15.41;nan;99399.03;6242546;22;20043;-73
2023/07/28 04:12:17;;;;;;;0.00;0.00;;;;;;;15.41;nan;99388.03;6270698;22;20008;-74
2023/07/28 04:14:43;;;;;;;0.00;0.00;;;;;;;15.46;nan;99387.88;6268986;22;20100;-73
2023/07/28 04:17:08;;;;;;;0.00;0.00;;;;;;;15.43;nan;99385.75;6269598;22;20011;-73
2023/07/28 04:19:34;;;;;;;0.00;0.00;;;;;;;15.31;nan;99388.34;6242779;22;20485;-73
2023/07/28 04:22:00;;;;;;;0.00;0.00;;;;;;;15.17;nan;99394.00;6244672;22;20065;-73
2023/07/28 04:24:26;;;;;;;0.00;0.00;;;;;;;15.06;nan;99393.50;6269888;22;20628;-73
2023/07/28 04:26:51;;;;;;;0.00;0.00;;;;;;;14.98;nan;99399.78;6270589;22;20003;-74
2023/07/28 04:29:17;;;;;;;0.00;0.00;;;;;;;14.91;nan;99396.69;6271261;22;20007;-75
2023/07/28 04:31:42;;;;;;;0.00;0.00;;;;;;;14.87;nan;99395.72;6270340;22;20018;-74
2023/07/28 04:34:08;;;;;;;0.00;0.00;;;;;;;14.83;nan;99395.53;6246337;22;20095;-73
2023/07/28 04:36:34;;;;;;;0.00;0.00;;;;;;;14.83;nan;99406.56;6245218;22;20089;-72
2023/07/28 04:38:59;;;;;;;0.00;0.00;;;;;;;14.86;nan;99399.59;6272208;22;20038;-74
2023/07/28 04:41:25;;;;;;;0.00;0.00;;;;;;;14.87;nan;99401.25;6273744;22;21029;-74
2023/07/28 04:43:50;;;;;;;0.00;0.00;;;;;;;14.88;nan;99408.34;6270967;22;20008;-74
2023/07/28 04:46:16;;;;;;;0.00;0.00;;;;;;;14.95;nan;99404.00;6272895;22;20341;-72
2023/07/28 04:48:41;;;;;;;0.00;0.00;;;;;;;15.06;nan;99399.00;6271408;22;20016;-73
2023/07/28 04:51:07;;;;;;;0.00;0.00;;;;;;;15.19;nan;99403.56;6272195;22;20008;-74
2023/07/28 04:53:32;;;;;;;0.00;0.00;;;;;;;15.26;nan;99391.25;6270540;22;20078;-73
2023/07/28 04:55:58;;;;;;;0.00;0.00;;;;;;;15.37;nan;99403.56;6275145;22;20026;-73
2023/07/28 04:58:23;;;;;;;0.00;0.00;;;;;;;15.45;nan;99405.53;6271265;22;20007;-75
2023/07/28 05:00:49;;;;;;;0.00;0.00;;;;;;;15.52;nan;99392.09;6269332;22;20027;-74
2023/07/28 05:03:14;;;;;;;0.00;0.00;;;;;;;15.58;nan;99397.41;6245842;22;20007;-72
2023/07/28 05:05:43;;;;;;;0.00;0.00;;;;;;;15.63;nan;99394.50;6272875;22;20006;-73
2023/07/28 05:08:08;;;;;;;0.00;0.00;;;;;;;15.64;nan;99388.66;6270945;22;20007;-73
2023/07/28 05:10:34;;;;;;;0.00;0.00;;;;;;;15.68;nan;99388.81;6272512;22;20031;-73
2023/07/28 05:12:59;;;;;;;0.00;0.00;;;;;;;15.70;nan;99401.16;6270875;22;20050;-76
2023/07/28 05:15:24;;;;;;;0.00;0.00;;;;;;;15.67;nan;99395.50;6253869;22;20038;-75
2023/07/28 05:17:50;;;;;;;0.00;0.00;;;;;;;15.69;nan;99401.47;6246479;22;20004;-73
2023/07/28 05:20:16;;;;;;;0.00;0.00;;;;;;;15.78;nan;99395.94;6271989;22;20017;-72
2023/07/28 05:22:41;;;;;;;0.00;0.00;;;;;;;15.87;nan;99405.88;6269179;22;20007;-72
2023/07/28 05:25:07;;;;;;;0.00;0.00;;;;;;;15.97;nan;99398.38;6244686;22;19992;-72
2023/07/28 05:27:32;;;;;;;0.00;0.00;;;;;;;16.08;nan;99402.44;6271614;22;20031;-74
2023/07/28 05:29:58;;;;;;;0.00;0.00;;;;;;;16.18;nan;99399.31;6271121;22;20010;-74
2023/07/28 05:32:24;;;;;;;0.00;0.00;;;;;;;16.29;nan;99399.75;6271048;22;20022;-74
2023/07/28 05:34:49;;;;;;;0.00;0.00;;;;;;;16.37;nan;99398.13;6272053;22;20029;-74
2023/07/28 05:37:14;;;;;;;0.00;0.00;;;;;;;16.45;nan;99408.31;6245876;22;20072;-73
2023/07/28 05:39:40;;;;;;;0.00;0.00;;;;;;;16.54;nan;99395.31;6272335;22;20030;-73
2023/07/28 05:42:05;;;;;;;0.00;0.00;;;;;;;16.72;nan;99403.50;6220316;22;20422;-74
2023/07/28 05:44:31;;;;;;;0.00;0.00;;;;;;;16.82;nan;99402.31;6245413;22;20081;-74
2023/07/28 05:46:56;;;;;;;0.00;0.00;;;;;;;16.89;nan;99410.91;6273456;22;20086;-74
2023/07/28 05:49:22;;;;;;;0.00;0.00;;;;;;;16.86;nan;99395.78;6250570;22;20057;-74
2023/07/28 05:51:47;;;;;;;0.00;0.00;;;;;;;16.87;nan;99391.91;6281917;22;20008;-73
2023/07/28 05:54:15;;;;;;;0.00;0.00;;;;;;;16.97;nan;99396.25;6227650;22;20000;-74
2023/07/28 05:56:41;;;;;;;0.00;0.00;;;;;;;17.17;nan;99399.38;6288804;22;20023;-73
2023/07/28 05:59:07;;;;;;;0.00;0.00;;;;;;;17.43;nan;99410.22;6283491;22;20007;-73
2023/07/28 06:01:33;;;;;;;0.00;0.00;;;;;;;17.68;nan;99397.34;6271594;22;20011;-74
2023/07/28 06:03:59;;;;;;;0.00;0.00;;;;;;;17.95;nan;99396.00;6271184;22;20004;-73
2023/07/28 06:06:27;;;;;;;0.00;0.00;;;;;;;18.12;nan;99399.72;6272175;22;20038;-74
2023/07/28 06:08:54;;;;;;;0.00;0.00;;;;;;;18.20;nan;99412.66;6270840;22;20422;-73
2023/07/28 06:11:20;;;;;;;0.00;0.00;;;;;;;18.19;nan;99404.69;6270214;22;20600;-73
2023/07/28 06:13:46;;;;;;;0.00;0.00;;;;;;;18.20;nan;99412.66;6271641;22;20649;-73
2023/07/28 06:16:12;;;;;;;0.00;0.00;;;;;;;18.18;nan;99411.38;6269887;22;20015;-73
2023/07/28 06:18:38;;;;;;;0.00;0.00;;;;;;;18.16;nan;99408.94;6273458;22;20035;-73
2023/07/28 06:21:03;;;;;;;0.00;0.00;;;;;;;18.05;nan;99410.56;6218671;22;20008;-72
2023/07/28 06:23:29;;;;;;;0.00;0.00;;;;;;;18.05;nan;99416.09;6271427;22;20000;-73
2023/07/28 06:25:55;;;;;;;0.00;0.00;;;;;;;18.04;nan;99417.22;6269595;22;20330;-73
2023/07/28 06:28:20;;;;;;;0.00;0.00;;;;;;;18.08;nan;99416.19;6270492;22;20007;-72
2023/07/28 06:30:46;;;;;;;0.00;0.00;;;;;;;18.10;nan;99418.63;6270160;22;20091;-73
2023/07/28 06:33:12;;;;;;;0.00;0.00;;;;;;;18.15;nan;99421.19;6270834;22;20058;-73
2023/07/28 06:35:37;;;;;;;0.00;0.00;;;;;;;18.25;nan;99426.28;6245125;22;20333;-74
2023/07/28 06:38:03;;;;;;;0.00;0.00;;;;;;;18.35;nan;99429.75;6270646;22;20414;-73
2023/07/28 06:40:29;;;;;;;0.00;0.00;;;;;;;18.38;nan;99423.53;6269299;22;20414;-73
2023/07/28 06:42:54;;;;;;;0.00;0.00;;;;;;;18.50;nan;99420.81;6272062;22;20427;-74
2023/07/28 06:45:21;;;;;;;0.00;0.00;;;;;;;18.74;nan;99433.06;6263832;22;20032;-73
2023/07/28 06:47:47;;;;;;;0.00;0.00;;;;;;;18.88;nan;99433.56;6236619;23;20692;-72
2023/07/28 06:50:13;;;;;;;0.00;0.00;;;;;;;18.86;nan;99444.16;6240621;23;20004;-72
2023/07/28 06:52:39;;;;;;;0.00;0.00;;;;;;;18.88;nan;99438.25;6241008;22;20454;-73
2023/07/28 06:55:05;;;;;;;0.00;0.00;;;;;;;18.85;nan;99442.50;6239464;23;20007;-74
2023/07/28 06:57:31;;;;;;;0.00;0.00;;;;;;;18.86;nan;99449.69;6239513;22;20521;-73
2023/07/28 06:59:56;;;;;;;0.00;0.00;;;;;;;18.84;nan;99441.69;6188454;23;20011;-73
2023/07/28 07:02:22;;;;;;;0.00;0.00;;;;;;;18.79;nan;99443.88;6238306;23;20331;-73
2023/07/28 07:04:47;;;;;;;0.00;0.00;;;;;;;18.90;nan;99452.59;6213187;23;20449;-73
2023/07/28 07:07:13;;;;;;;0.00;0.00;;;;;;;18.97;nan;99450.84;6213043;23;20411;-72
2023/07/28 07:09:38;;;;;;;0.00;0.00;;;;;;;18.99;nan;99454.06;6212401;23;20419;-72
2023/07/28 07:12:04;;;;;;;0.00;0.00;;;;;;;19.09;nan;99452.00;6237261;23;20324;-72
2023/07/28 07:14:30;;;;;;;0.00;0.00;;;;;;;19.25;nan;99457.66;6236679;23;20050;-71
2023/07/28 07:16:55;;;;;;;0.00;0.00;;;;;;;19.40;nan;99458.91;6239503;23;20443;-74
2023/07/28 07:19:20;;;;;;;0.00;0.00;;;;;;;19.47;nan;99451.59;6215375;23;20342;-73
2023/07/28 07:21:47;;;;;;;0.00;0.00;;;;;;;19.47;nan;99456.34;6241984;23;20008;-72
2023/07/28 07:24:16;;;;;;;0.00;0.00;;;;;;;19.48;nan;99457.97;6216271;23;20028;-73
2023/07/28 07:26:41;;;;;;;0.00;0.00;;;;;;;19.50;nan;99464.75;6217809;23;20008;-74
2023/07/28 07:29:09;;;;;;;0.00;0.00;;;;;;;19.71;nan;99461.84;6215644;23;20016;-77
2023/07/28 07:31:34;;;;;;;0.00;0.00;;;;;;;19.96;nan;99459.03;6216653;23;20435;-77
2023/07/28 07:34:00;;;;;;;0.00;0.00;;;;;;;20.11;nan;99456.66;6242558;23;20018;-78
2023/07/28 07:36:25;;;;;;;0.00;0.00;;;;;;;20.12;nan;99456.28;6191683;23;20011;-77
2023/07/28 07:38:54;;;;;;;0.00;0.00;;;;;;;20.23;nan;99464.91;6218463;23;20004;-76
2023/07/28 07:41:21;;;;;;;0.00;0.00;;;;;;;20.40;nan;99467.34;6245013;23;20007;-75
2023/07/28 07:43:48;;;;;;;0.00;0.00;;;;;;;20.50;nan;99462.44;6244357;22;20020;-75
2023/07/28 07:46:15;;;;;;;0.00;0.00;;;;;;;20.73;nan;99457.09;6243360;23;20012;-77
2023/07/28 07:48:45;;;;;;;0.00;0.00;;;;;;;21.08;nan;99454.41;6241482;22;20008;-75
2023/07/28 07:51:13;;;;;;;0.00;0.00;;;;;;;21.54;nan;99464.22;6240197;23;20003;-75
2023/07/28 07:53:39;;;;;;;0.00;0.00;;;;;;;21.40;nan;99446.00;6218991;23;20070;-75
2023/07/28 07:56:05;;;;;;;0.00;0.00;;;;;;;20.94;nan;99465.19;6243974;23;20012;-76
2023/07/28 07:58:31;;;;;;;0.00;0.00;;;;;;;20.35;nan;99462.03;6245889;22;20082;-76
2023/07/28 08:00:59;;;;;;;0.00;0.00;;;;;;;20.09;nan;99475.59;6244462;23;20023;-77
2023/07/28 08:03:27;;;;;;;0.00;0.00;;;;;;;19.92;nan;99466.44;6215216;23;20016;-77
2023/07/28 08:05:53;;;;;;;0.00;0.00;;;;;;;19.82;nan;99469.69;6244074;23;20346;-77
2023/07/28 08:08:19;;;;;;;0.00;0.00;;;;;;;19.80;nan;99470.06;6248249;23;20003;-77
2023/07/28 08:10:47;;;;;;;0.00;0.00;;;;;;;19.69;nan;99480.78;6244208;23;20015;-77
2023/07/28 08:13:26;;;;;;;0.00;0.00;;;;;;;19.54;nan;99481.53;6240784;22;20012;-73
2023/07/28 08:15:53;;;;;;;0.00;0.00;;;;;;;19.39;nan;99466.44;6254986;22;20329;-75
2023/07/28 08:18:19;;;;;;;0.00;0.00;;;;;;;19.49;nan;99470.66;6249882;22;20008;-75
2023/07/28 08:20:44;;;;;;;0.00;0.00;;;;;;;19.80;nan;99488.66;6249592;22;20007;-76
2023/07/28 08:23:12;;;;;;;0.00;0.00;;;;;;;19.78;nan;99477.06;6224780;22;20011;-75
2023/07/28 08:25:37;;;;;;;0.00;0.00;;;;;;;19.41;nan;99491.03;6222154;22;20007;-75
2023/07/28 08:28:06;;;;;;;0.00;0.00;;;;;;;19.06;nan;99491.50;6222529;22;20018;-74
2023/07/28 08:30:31;;;;;;;0.00;0.00;;;;;;;19.13;nan;99492.53;6199038;22;20016;-75
2023/07/28 08:32:57;;;;;;;0.00;0.00;;;;;;;19.65;nan;99493.72;6248770;22;20077;-73
2023/07/28 08:35:43;;;;;;;0.00;0.00;;;;;;;20.37;nan;99493.06;6246601;22;20011;-74
2023/07/28 08:38:08;;;;;;;0.00;0.00;;;;;;;20.78;nan;99476.31;6241822;22;20008;-74
2023/07/28 08:40:34;;;;;;;0.00;0.00;;;;;;;21.21;nan;99490.44;6221140;22;20021;-73
2023/07/28 08:43:02;;;;;;;0.00;0.00;;;;;;;21.55;nan;99483.31;6246644;22;20034;-75
2023/07/28 08:45:28;;;;;;;0.00;0.00;;;;;;;21.95;nan;99486.94;6248382;22;20023;-73
2023/07/28 08:47:53;;;;;;;0.00;0.00;;;;;;;22.44;nan;99478.00;6245165;22;20090;-74
2023/07/28 08:50:19;;;;;;;0.00;0.00;;;;;;;23.08;nan;99488.63;6246980;22;20053;-73
2023/07/28 08:52:45;;;;;;;0.00;0.00;;;;;;;23.22;nan;99490.88;6245529;22;20014;-73
2023/07/28 08:55:11;;;;;;;0.00;0.00;;;;;;;23.10;nan;99496.63;6245628;22;20091;-73
2023/07/28 08:57:36;;;;;;;0.00;0.00;;;;;;;23.13;nan;99488.38;6271411;22;20019;-73
2023/07/28 09:00:12;;;;;;;0.00;0.00;;;;;;;23.26;nan;99488.16;6244255;22;20003;-72
2023/07/28 09:02:37;;;;;;;0.00;0.00;;;;;;;23.11;nan;99489.91;6245763;22;20022;-73
2023/07/28 09:05:05;;;;;;;0.00;0.00;;;;;;;23.16;nan;99479.25;6220419;22;20008;-74
2023/07/28 09:07:36;;;;;;;0.00;0.00;;;;;;;23.41;nan;99478.81;6246132;22;20011;-73
2023/07/28 09:10:02;;;;;;;0.00;0.00;;;;;;;23.85;nan;99489.38;6271930;22;20011;-73
2023/07/28 09:12:31;;;;;;;0.00;0.00;;;;;;;24.48;nan;99489.75;6273246;22;20011;-72
2023/07/28 09:14:57;;;;;;;0.00;0.00;;;;;;;25.00;nan;99500.22;6271433;22;19992;-72
2023/07/28 09:17:22;;;;;;;0.00;0.00;;;;;;;25.10;nan;99499.50;6218874;22;20014;-74
2023/07/28 09:19:51;;;;;;;0.00;0.00;;;;;;;24.46;nan;99496.91;6271816;22;20057;-73
2023/07/28 09:22:18;;;;;;;0.00;0.00;;;;;;;23.91;nan;99498.25;6270464;22;20004;-74
2023/07/28 09:24:44;;;;;;;0.00;0.00;;;;;;;23.63;nan;99495.88;6244268;22;20004;-73
2023/07/28 09:27:24;;;;;;;0.00;0.00;;;;;;;23.32;nan;99487.47;6244986;22;20003;-74
2023/07/28 09:29:54;;;;;;;0.00;0.00;;;;;;;23.17;nan;99497.59;6248011;22;20007;-73
2023/07/28 09:32:36;;;;;;;0.00;0.00;;;;;;;22.95;nan;99496.38;6222192;22;20034;-73
2023/07/28 09:35:11;;;;;;;0.00;0.00;;;;;;;22.94;nan;99491.19;6242461;22;20072;-73
2023/07/28 09:37:39;;;;;;;0.00;0.00;;;;;;;23.20;nan;99500.81;6242433;22;20003;-73
2023/07/28 09:40:11;;;;;;;0.00;0.00;;;;;;;23.30;nan;99494.59;6240711;22;20122;-73
2023/07/28 09:42:40;;;;;;;0.00;0.00;;;;;;;23.60;nan;99499.44;6242543;22;20012;-74
2023/07/28 09:45:07;;;;;;;0.00;0.00;;;;;;;23.99;nan;99507.53;6269253;22;20015;-73
2023/07/28 09:47:35;;;;;;;0.00;0.00;;;;;;;24.89;nan;99498.16;6241511;22;20641;-74
2023/07/28 09:50:03;;;;;;;0.00;0.00;;;;;;;25.51;nan;99499.47;6270535;22;20430;-74
2023/07/28 09:52:34;;;;;;;0.00;0.00;;;;;;;25.73;nan;99503.19;6241377;22;20027;-74
2023/07/28 09:55:05;;;;;;;0.00;0.00;;;;;;;25.68;nan;99491.56;6269684;22;20004;-73
2023/07/28 09:57:39;;;;;;;0.00;0.00;;;;;;;25.29;nan;99497.66;6269866;22;20010;-73
2023/07/28 10:00:08;;;;;;;0.00;0.00;;;;;;;24.98;nan;99511.00;6242564;22;20023;-73
2023/07/28 10:02:35;;;;;;;0.00;0.00;;;;;;;24.40;nan;99504.84;6242951;22;20300;-74
2023/07/28 10:05:01;;;;;;;0.00;0.00;;;;;;;24.28;nan;99505.09;6242953;22;20003;-73
2023/07/28 10:07:28;;;;;;;0.00;0.00;;;;;;;23.99;nan;99501.94;6270094;22;20004;-73
2023/07/28 10:09:54;;;;;;;0.00;0.00;;;;;;;23.65;nan;99505.47;6216399;22;20730;-72
2023/07/28 10:12:25;;;;;;;0.00;0.00;;;;;;;23.39;nan;99497.09;6272707;22;20333;-74
2023/07/28 10:15:01;;;;;;;0.00;0.00;;;;;;;23.45;nan;99498.38;6245454;22;20097;-72
2023/07/28 10:17:34;;;;;;;0.00;0.00;;;;;;;23.58;nan;99494.19;6246057;22;20082;-73
2023/07/28 10:20:07;;;;;;;0.00;0.00;;;;;;;24.32;nan;99491.97;6273265;22;20082;-73
2023/07/28 10:22:44;;;;;;;0.00;0.00;;;;;;;24.69;nan;99494.78;6271263;22;20059;-73
2023/07/28 10:25:10;;;;;;;0.00;0.00;;;;;;;24.44;nan;99494.47;6271977;22;20106;-74
2023/07/28 10:27:43;;;;;;;0.00;0.00;;;;;;;24.27;nan;99495.91;6244816;22;20008;-73
2023/07/28 10:30:12;;;;;;;0.00;0.00;;;;;;;24.33;nan;99488.00;6244406;22;19999;-73
2023/07/28 10:32:39;;;;;;;0.00;0.00;;;;;;;24.45;nan;99495.31;6271494;22;20012;-76
2023/07/28 10:35:17;;;;;;;0.00;0.00;;;;;;;24.13;nan;99502.13;6245854;22;20065;-74
2023/07/28 10:37:46;;;;;;;0.00;0.00;;;;;;;23.44;nan;99499.59;6244516;22;20007;-73
2023/07/28 10:40:35;;;;;;;0.00;0.00;;;;;;;22.74;nan;99499.63;6245735;22;20053;-73
2023/07/28 10:43:01;;;;;;;0.00;0.00;;;;;;;22.28;nan;99502.31;6245271;22;20082;-73
2023/07/28 10:45:32;;;;;;;0.00;0.00;;;;;;;22.02;nan;99498.22;6245929;22;20004;-73
2023/07/28 10:48:03;;;;;;;0.00;0.00;;;;;;;22.11;nan;99490.44;6244164;22;20008;-73
2023/07/28 10:50:30;;;;;;;0.00;0.00;;;;;;;22.45;nan;99489.94;6246239;22;20011;-73
2023/07/28 10:52:56;;;;;;;0.00;0.00;;;;;;;23.24;nan;99494.09;6245350;22;20011;-73
2023/07/28 10:55:24;;;;;;;0.00;0.00;;;;;;;24.30;nan;99497.94;6274992;22;19992;-72
2023/07/28 10:57:51;;;;;;;0.00;0.00;;;;;;;25.00;nan;99491.84;6273775;22;20016;-73
2023/07/28 11:00:18;;;;;;;0.00;0.00;;;;;;;25.55;nan;99500.28;6246288;22;20014;-73
2023/07/28 11:02:49;;;;;;;0.00;0.00;;;;;;;25.85;nan;99490.06;6247259;22;20434;-73
2023/07/28 11:05:21;;;;;;;0.00;0.00;;;;;;;26.44;nan;99493.47;6274915;22;20000;-73
2023/07/28 11:07:48;;;;;;;0.00;0.00;;;;;;;27.19;nan;99491.97;6246317;22;20033;-74
2023/07/28 11:10:14;;;;;;;0.00;0.00;;;;;;;26.72;nan;99485.53;6222027;22;20015;-72
2023/07/28 11:12:52;;;;;;;0.00;0.00;;;;;;;25.90;nan;99487.66;6221151;22;20426;-73
2023/07/28 11:15:18;;;;;;;0.00;0.00;;;;;;;25.17;nan;99488.38;6273448;22;20669;-72
2023/07/28 11:17:49;;;;;;;0.00;0.00;;;;;;;24.63;nan;99495.50;6247942;22;20037;-73
2023/07/28 11:20:21;;;;;;;0.00;0.00;;;;;;;24.77;nan;99494.84;6243436;22;20003;-73
2023/07/28 11:22:53;;;;;;;0.00;0.00;;;;;;;25.47;nan;99481.84;6275025;22;20003;-73
2023/07/28 11:25:19;;;;;;;0.00;0.00;;;;;;;26.00;nan;99485.34;6247778;22;20000;-72
2023/07/28 11:27:47;;;;;;;0.00;0.00;;;;;;;26.27;nan;99483.84;6222844;22;20012;-73
2023/07/28 11:30:15;;;;;;;0.00;0.00;;;;;;;25.98;nan;99488.50;6275305;22;20093;-73
2023/07/28 11:32:45;;;;;;;0.00;0.00;;;;;;;25.63;nan;99477.91;6247493;22;20315;-74
2023/07/28 11:35:13;;;;;;;0.00;0.00;;;;;;;25.61;nan;99476.34;6275026;22;20014;-74
2023/07/28 11:37:40;;;;;;;0.00;0.00;;;;;;;26.28;nan;99488.25;6248665;22;20003;-73
2023/07/28 11:40:13;;;;;;;0.00;0.00;;;;;;;26.72;nan;99477.94;6223950;22;20039;-76
2023/07/28 11:42:53;;;;;;;0.00;0.00;;;;;;;28.41;nan;99482.38;6277629;22;20082;-72
2023/07/28 11:45:19;;;;;;;0.00;0.00;;;;;;;28.91;nan;99484.06;6283505;22;19999;-74
2023/07/28 11:47:55;;;;;;;0.00;0.00;;;;;;;29.17;nan;99479.81;6274163;22;20007;-73
2023/07/28 11:50:40;;;;;;;0.00;0.00;;;;;;;29.64;nan;99485.00;6276439;22;20007;-73